sensor_id;sensor_type;location;lat;lon;timestamp;P1;durP1;ratioP1;P2;durP2;ratioP2
75758;SDS011;64371;47.566;19.086;2023-05-03T00:02:14;10.87;;;8.07;;
75758;SDS011;64371;47.566;19.086;2023-05-03T00:05:17;9.70;;;7.55;;
75758;SDS011;64371;47.566;19.086;2023-05-03T00:08:20;9.73;;;7.75;;
75758;SDS011;64371;47.566;19.086;2023-05-03T00:11:23;9.82;;;7.50;;
75758;SDS011;64371;47.566;19.086;2023-05-03T00:14:25;10.63;;;7.45;;
75758;SDS011;64371;47.566;19.086;2023-05-03T00:17:27;8.97;;;7.13;;
75758;SDS011;64371;47.566;19.086;2023-05-03T00:20:30;9.27;;;6.53;;
75758;SDS011;64371;47.566;19.086;2023-05-03T00:23:32;9.60;;;7.05;;
75758;SDS011;64371;47.566;19.086;2023-05-03T00:26:34;11.82;;;8.20;;
75758;SDS011;64371;47.566;19.086;2023-05-03T00:29:37;11.00;;;7.72;;
75758;SDS011;64371;47.566;19.086;2023-05-03T00:32:39;10.60;;;7.80;;
75758;SDS011;64371;47.566;19.086;2023-05-03T00:35:42;9.88;;;8.30;;
75758;SDS011;64371;47.566;19.086;2023-05-03T00:38:46;12.55;;;8.25;;
75758;SDS011;64371;47.566;19.086;2023-05-03T00:41:48;12.65;;;7.82;;
75758;SDS011;64371;47.566;19.086;2023-05-03T00:44:51;8.30;;;6.85;;
75758;SDS011;64371;47.566;19.086;2023-05-03T00:47:56;10.43;;;8.33;;
75758;SDS011;64371;47.566;19.086;2023-05-03T00:50:59;10.25;;;7.90;;
75758;SDS011;64371;47.566;19.086;2023-05-03T00:54:03;12.02;;;9.07;;
75758;SDS011;64371;47.566;19.086;2023-05-03T00:57:05;11.93;;;8.48;;
75758;SDS011;64371;47.566;19.086;2023-05-03T01:00:08;10.98;;;8.32;;
75758;SDS011;64371;47.566;19.086;2023-05-03T01:03:14;14.93;;;9.87;;
75758;SDS011;64371;47.566;19.086;2023-05-03T01:15:58;12.20;;;8.45;;
75758;SDS011;64371;47.566;19.086;2023-05-03T01:19:13;11.93;;;8.50;;
75758;SDS011;64371;47.566;19.086;2023-05-03T01:22:34;13.60;;;9.82;;
75758;SDS011;64371;47.566;19.086;2023-05-03T01:25:44;12.90;;;8.52;;
75758;SDS011;64371;47.566;19.086;2023-05-03T01:28:47;12.18;;;8.75;;
75758;SDS011;64371;47.566;19.086;2023-05-03T01:31:52;10.73;;;8.50;;
75758;SDS011;64371;47.566;19.086;2023-05-03T01:38:17;11.27;;;8.13;;
75758;SDS011;64371;47.566;19.086;2023-05-03T01:41:20;10.63;;;8.60;;
75758;SDS011;64371;47.566;19.086;2023-05-03T01:44:26;9.70;;;8.05;;
75758;SDS011;64371;47.566;19.086;2023-05-03T01:47:30;11.63;;;8.85;;
75758;SDS011;64371;47.566;19.086;2023-05-03T01:50:33;13.50;;;9.33;;
75758;SDS011;64371;47.566;19.086;2023-05-03T01:53:35;12.05;;;8.85;;
75758;SDS011;64371;47.566;19.086;2023-05-03T01:56:38;11.02;;;8.80;;
75758;SDS011;64371;47.566;19.086;2023-05-03T01:59:41;13.65;;;8.77;;
75758;SDS011;64371;47.566;19.086;2023-05-03T02:02:43;11.55;;;8.93;;
75758;SDS011;64371;47.566;19.086;2023-05-03T02:05:47;12.63;;;9.50;;
75758;SDS011;64371;47.566;19.086;2023-05-03T02:08:49;10.98;;;8.63;;
75758;SDS011;64371;47.566;19.086;2023-05-03T02:11:51;11.43;;;8.93;;
75758;SDS011;64371;47.566;19.086;2023-05-03T02:14:54;11.80;;;9.32;;
75758;SDS011;64371;47.566;19.086;2023-05-03T02:17:56;12.25;;;8.88;;
75758;SDS011;64371;47.566;19.086;2023-05-03T02:20:59;11.43;;;9.23;;
75758;SDS011;64371;47.566;19.086;2023-05-03T02:24:02;12.80;;;9.35;;
75758;SDS011;64371;47.566;19.086;2023-05-03T02:27:04;13.00;;;8.40;;
75758;SDS011;64371;47.566;19.086;2023-05-03T02:30:07;11.55;;;8.80;;
75758;SDS011;64371;47.566;19.086;2023-05-03T02:33:15;10.73;;;8.85;;
75758;SDS011;64371;47.566;19.086;2023-05-03T02:36:18;13.23;;;8.87;;
75758;SDS011;64371;47.566;19.086;2023-05-03T02:39:21;12.00;;;9.32;;
75758;SDS011;64371;47.566;19.086;2023-05-03T02:42:24;12.93;;;9.10;;
75758;SDS011;64371;47.566;19.086;2023-05-03T02:45:26;13.48;;;8.88;;
75758;SDS011;64371;47.566;19.086;2023-05-03T02:48:29;13.73;;;9.80;;
75758;SDS011;64371;47.566;19.086;2023-05-03T02:51:31;13.33;;;10.10;;
75758;SDS011;64371;47.566;19.086;2023-05-03T02:54:34;14.45;;;10.15;;
75758;SDS011;64371;47.566;19.086;2023-05-03T02:57:42;17.25;;;11.52;;
75758;SDS011;64371;47.566;19.086;2023-05-03T03:00:48;16.60;;;11.93;;
75758;SDS011;64371;47.566;19.086;2023-05-03T03:03:52;15.00;;;10.63;;
75758;SDS011;64371;47.566;19.086;2023-05-03T03:06:55;17.70;;;12.27;;
75758;SDS011;64371;47.566;19.086;2023-05-03T03:09:58;15.00;;;10.85;;
75758;SDS011;64371;47.566;19.086;2023-05-03T03:13:00;16.98;;;11.50;;
75758;SDS011;64371;47.566;19.086;2023-05-03T03:16:09;14.18;;;10.88;;
75758;SDS011;64371;47.566;19.086;2023-05-03T03:19:11;16.63;;;11.82;;
75758;SDS011;64371;47.566;19.086;2023-05-03T03:22:15;24.00;;;16.53;;
75758;SDS011;64371;47.566;19.086;2023-05-03T03:25:18;15.40;;;11.00;;
75758;SDS011;64371;47.566;19.086;2023-05-03T03:28:21;17.67;;;11.38;;
75758;SDS011;64371;47.566;19.086;2023-05-03T03:31:24;15.98;;;11.00;;
75758;SDS011;64371;47.566;19.086;2023-05-03T03:34:29;13.73;;;10.57;;
75758;SDS011;64371;47.566;19.086;2023-05-03T03:37:32;17.10;;;11.10;;
75758;SDS011;64371;47.566;19.086;2023-05-03T03:40:35;14.50;;;11.27;;
75758;SDS011;64371;47.566;19.086;2023-05-03T03:43:38;13.65;;;10.38;;
75758;SDS011;64371;47.566;19.086;2023-05-03T03:46:45;15.10;;;10.80;;
75758;SDS011;64371;47.566;19.086;2023-05-03T03:49:48;16.45;;;11.25;;
75758;SDS011;64371;47.566;19.086;2023-05-03T03:52:51;15.00;;;10.70;;
75758;SDS011;64371;47.566;19.086;2023-05-03T03:55:54;14.55;;;10.90;;
75758;SDS011;64371;47.566;19.086;2023-05-03T03:58:58;13.50;;;10.73;;
75758;SDS011;64371;47.566;19.086;2023-05-03T04:02:00;12.88;;;9.57;;
75758;SDS011;64371;47.566;19.086;2023-05-03T04:05:03;17.73;;;12.32;;
75758;SDS011;64371;47.566;19.086;2023-05-03T04:08:07;13.63;;;10.80;;
75758;SDS011;64371;47.566;19.086;2023-05-03T04:11:10;16.45;;;12.10;;
75758;SDS011;64371;47.566;19.086;2023-05-03T04:14:31;15.10;;;11.25;;
75758;SDS011;64371;47.566;19.086;2023-05-03T04:17:33;17.13;;;11.80;;
75758;SDS011;64371;47.566;19.086;2023-05-03T04:20:39;16.98;;;12.02;;
75758;SDS011;64371;47.566;19.086;2023-05-03T04:23:42;16.93;;;11.93;;
75758;SDS011;64371;47.566;19.086;2023-05-03T04:26:47;15.63;;;11.50;;
75758;SDS011;64371;47.566;19.086;2023-05-03T04:29:59;14.90;;;11.23;;
75758;SDS011;64371;47.566;19.086;2023-05-03T04:33:02;17.00;;;11.80;;
75758;SDS011;64371;47.566;19.086;2023-05-03T04:36:09;15.85;;;10.80;;
75758;SDS011;64371;47.566;19.086;2023-05-03T04:39:12;15.23;;;10.63;;
75758;SDS011;64371;47.566;19.086;2023-05-03T04:42:18;13.27;;;10.63;;
75758;SDS011;64371;47.566;19.086;2023-05-03T04:45:21;17.08;;;11.18;;
75758;SDS011;64371;47.566;19.086;2023-05-03T04:48:25;13.45;;;10.38;;
75758;SDS011;64371;47.566;19.086;2023-05-03T04:51:30;11.45;;;9.48;;
75758;SDS011;64371;47.566;19.086;2023-05-03T04:54:33;13.57;;;8.90;;
75758;SDS011;64371;47.566;19.086;2023-05-03T04:57:35;14.82;;;10.30;;
75758;SDS011;64371;47.566;19.086;2023-05-03T05:00:40;12.45;;;9.52;;
75758;SDS011;64371;47.566;19.086;2023-05-03T05:03:49;13.75;;;10.07;;
75758;SDS011;64371;47.566;19.086;2023-05-03T05:06:56;12.98;;;9.00;;
75758;SDS011;64371;47.566;19.086;2023-05-03T05:10:02;12.53;;;8.63;;
75758;SDS011;64371;47.566;19.086;2023-05-03T05:13:05;10.90;;;9.05;;
75758;SDS011;64371;47.566;19.086;2023-05-03T05:16:09;12.07;;;8.57;;
75758;SDS011;64371;47.566;19.086;2023-05-03T05:19:14;14.35;;;9.98;;
75758;SDS011;64371;47.566;19.086;2023-05-03T05:22:17;13.38;;;9.10;;
75758;SDS011;64371;47.566;19.086;2023-05-03T05:25:26;13.10;;;8.83;;
75758;SDS011;64371;47.566;19.086;2023-05-03T05:28:30;10.15;;;8.20;;
75758;SDS011;64371;47.566;19.086;2023-05-03T05:31:34;10.68;;;8.50;;
75758;SDS011;64371;47.566;19.086;2023-05-03T05:34:40;13.02;;;8.82;;
75758;SDS011;64371;47.566;19.086;2023-05-03T05:37:50;13.35;;;10.15;;
75758;SDS011;64371;47.566;19.086;2023-05-03T05:40:53;11.50;;;8.40;;
75758;SDS011;64371;47.566;19.086;2023-05-03T05:43:57;13.20;;;9.27;;
75758;SDS011;64371;47.566;19.086;2023-05-03T05:47:03;11.10;;;8.18;;
75758;SDS011;64371;47.566;19.086;2023-05-03T05:50:09;9.93;;;7.80;;
75758;SDS011;64371;47.566;19.086;2023-05-03T05:53:23;12.02;;;8.45;;
75758;SDS011;64371;47.566;19.086;2023-05-03T05:56:32;8.30;;;7.37;;
75758;SDS011;64371;47.566;19.086;2023-05-03T05:59:34;8.02;;;6.72;;
75758;SDS011;64371;47.566;19.086;2023-05-03T06:02:38;11.57;;;8.23;;
75758;SDS011;64371;47.566;19.086;2023-05-03T06:05:43;8.45;;;6.78;;
75758;SDS011;64371;47.566;19.086;2023-05-03T06:08:45;8.25;;;5.88;;
75758;SDS011;64371;47.566;19.086;2023-05-03T06:11:50;27.53;;;16.77;;
75758;SDS011;64371;47.566;19.086;2023-05-03T06:14:53;9.18;;;6.10;;
75758;SDS011;64371;47.566;19.086;2023-05-03T06:18:09;8.18;;;6.60;;
75758;SDS011;64371;47.566;19.086;2023-05-03T06:21:11;7.68;;;6.18;;
75758;SDS011;64371;47.566;19.086;2023-05-03T06:24:17;5.80;;;5.18;;
75758;SDS011;64371;47.566;19.086;2023-05-03T06:27:25;6.03;;;5.40;;
75758;SDS011;64371;47.566;19.086;2023-05-03T06:30:28;6.72;;;5.38;;
75758;SDS011;64371;47.566;19.086;2023-05-03T06:33:37;6.68;;;5.40;;
75758;SDS011;64371;47.566;19.086;2023-05-03T06:36:40;8.55;;;6.20;;
75758;SDS011;64371;47.566;19.086;2023-05-03T06:39:42;8.32;;;5.60;;
75758;SDS011;64371;47.566;19.086;2023-05-03T06:42:45;7.17;;;5.73;;
75758;SDS011;64371;47.566;19.086;2023-05-03T06:46:07;9.27;;;7.20;;
75758;SDS011;64371;47.566;19.086;2023-05-03T06:49:10;8.15;;;6.18;;
75758;SDS011;64371;47.566;19.086;2023-05-03T06:52:12;9.75;;;5.90;;
75758;SDS011;64371;47.566;19.086;2023-05-03T06:55:15;8.85;;;7.22;;
75758;SDS011;64371;47.566;19.086;2023-05-03T06:58:18;9.83;;;6.70;;
75758;SDS011;64371;47.566;19.086;2023-05-03T07:01:20;8.82;;;6.82;;
75758;SDS011;64371;47.566;19.086;2023-05-03T07:04:24;8.27;;;6.40;;
75758;SDS011;64371;47.566;19.086;2023-05-03T07:07:26;10.35;;;6.57;;
75758;SDS011;64371;47.566;19.086;2023-05-03T07:10:29;9.50;;;6.35;;
75758;SDS011;64371;47.566;19.086;2023-05-03T07:13:32;8.17;;;6.73;;
75758;SDS011;64371;47.566;19.086;2023-05-03T07:16:34;8.02;;;6.70;;
75758;SDS011;64371;47.566;19.086;2023-05-03T07:19:39;10.00;;;6.38;;
75758;SDS011;64371;47.566;19.086;2023-05-03T07:22:42;8.75;;;6.55;;
75758;SDS011;64371;47.566;19.086;2023-05-03T07:25:44;8.70;;;5.45;;
75758;SDS011;64371;47.566;19.086;2023-05-03T07:28:47;6.60;;;5.87;;
75758;SDS011;64371;47.566;19.086;2023-05-03T07:31:49;7.38;;;5.68;;
75758;SDS011;64371;47.566;19.086;2023-05-03T07:34:54;9.02;;;6.03;;
75758;SDS011;64371;47.566;19.086;2023-05-03T07:37:56;6.47;;;5.38;;
75758;SDS011;64371;47.566;19.086;2023-05-03T07:40:59;6.90;;;5.20;;
75758;SDS011;64371;47.566;19.086;2023-05-03T07:44:02;8.37;;;6.00;;
75758;SDS011;64371;47.566;19.086;2023-05-03T07:47:10;5.90;;;5.30;;
75758;SDS011;64371;47.566;19.086;2023-05-03T07:50:13;8.07;;;6.07;;
75758;SDS011;64371;47.566;19.086;2023-05-03T07:53:15;11.10;;;6.03;;
75758;SDS011;64371;47.566;19.086;2023-05-03T07:56:17;6.38;;;5.65;;
75758;SDS011;64371;47.566;19.086;2023-05-03T07:59:20;5.47;;;4.90;;
75758;SDS011;64371;47.566;19.086;2023-05-03T08:02:22;6.38;;;5.47;;
75758;SDS011;64371;47.566;19.086;2023-05-03T08:05:25;7.05;;;4.70;;
75758;SDS011;64371;47.566;19.086;2023-05-03T08:08:27;22.85;;;6.40;;
75758;SDS011;64371;47.566;19.086;2023-05-03T08:11:32;5.70;;;4.25;;
75758;SDS011;64371;47.566;19.086;2023-05-03T08:14:36;7.37;;;4.73;;
75758;SDS011;64371;47.566;19.086;2023-05-03T08:17:40;6.72;;;5.28;;
75758;SDS011;64371;47.566;19.086;2023-05-03T08:20:44;7.78;;;4.22;;
75758;SDS011;64371;47.566;19.086;2023-05-03T08:23:48;5.70;;;4.28;;
75758;SDS011;64371;47.566;19.086;2023-05-03T08:26:50;40.85;;;8.13;;
75758;SDS011;64371;47.566;19.086;2023-05-03T08:29:53;5.63;;;4.70;;
75758;SDS011;64371;47.566;19.086;2023-05-03T08:32:56;4.68;;;4.13;;
75758;SDS011;64371;47.566;19.086;2023-05-03T08:35:59;4.65;;;3.92;;
75758;SDS011;64371;47.566;19.086;2023-05-03T08:39:02;6.63;;;4.40;;
75758;SDS011;64371;47.566;19.086;2023-05-03T08:42:08;22.80;;;6.63;;
75758;SDS011;64371;47.566;19.086;2023-05-03T08:45:13;6.60;;;4.47;;
75758;SDS011;64371;47.566;19.086;2023-05-03T08:48:17;6.10;;;5.13;;
75758;SDS011;64371;47.566;19.086;2023-05-03T08:51:20;5.88;;;4.80;;
75758;SDS011;64371;47.566;19.086;2023-05-03T08:54:24;5.28;;;4.72;;
75758;SDS011;64371;47.566;19.086;2023-05-03T08:57:26;5.68;;;4.75;;
75758;SDS011;64371;47.566;19.086;2023-05-03T09:00:29;10.23;;;5.30;;
75758;SDS011;64371;47.566;19.086;2023-05-03T09:03:32;11.10;;;5.50;;
75758;SDS011;64371;47.566;19.086;2023-05-03T09:06:36;5.82;;;4.78;;
75758;SDS011;64371;47.566;19.086;2023-05-03T09:09:39;7.82;;;5.57;;
75758;SDS011;64371;47.566;19.086;2023-05-03T09:12:42;9.40;;;5.43;;
75758;SDS011;64371;47.566;19.086;2023-05-03T09:15:53;8.80;;;5.67;;
75758;SDS011;64371;47.566;19.086;2023-05-03T09:18:56;8.27;;;5.63;;
75758;SDS011;64371;47.566;19.086;2023-05-03T09:22:06;6.57;;;5.07;;
75758;SDS011;64371;47.566;19.086;2023-05-03T09:25:09;7.28;;;5.57;;
75758;SDS011;64371;47.566;19.086;2023-05-03T09:28:16;7.80;;;5.78;;
75758;SDS011;64371;47.566;19.086;2023-05-03T09:31:19;7.83;;;5.73;;
75758;SDS011;64371;47.566;19.086;2023-05-03T09:34:22;7.13;;;5.57;;
75758;SDS011;64371;47.566;19.086;2023-05-03T09:37:34;9.10;;;5.63;;
75758;SDS011;64371;47.566;19.086;2023-05-03T09:40:44;7.10;;;5.38;;
75758;SDS011;64371;47.566;19.086;2023-05-03T09:43:50;8.75;;;6.05;;
75758;SDS011;64371;47.566;19.086;2023-05-03T09:47:05;7.20;;;5.53;;
75758;SDS011;64371;47.566;19.086;2023-05-03T09:50:08;10.88;;;5.55;;
75758;SDS011;64371;47.566;19.086;2023-05-03T09:53:15;6.70;;;5.72;;
75758;SDS011;64371;47.566;19.086;2023-05-03T09:56:20;5.97;;;5.00;;
75758;SDS011;64371;47.566;19.086;2023-05-03T09:59:27;7.35;;;5.25;;
75758;SDS011;64371;47.566;19.086;2023-05-03T10:02:30;7.03;;;5.10;;
75758;SDS011;64371;47.566;19.086;2023-05-03T10:05:35;6.53;;;5.22;;
75758;SDS011;64371;47.566;19.086;2023-05-03T10:08:45;10.95;;;5.75;;
75758;SDS011;64371;47.566;19.086;2023-05-03T10:11:53;5.47;;;4.95;;
75758;SDS011;64371;47.566;19.086;2023-05-03T10:15:00;7.70;;;5.50;;
75758;SDS011;64371;47.566;19.086;2023-05-03T10:18:19;6.20;;;4.83;;
75758;SDS011;64371;47.566;19.086;2023-05-03T10:21:34;6.40;;;4.50;;
75758;SDS011;64371;47.566;19.086;2023-05-03T10:25:10;6.55;;;5.07;;
75758;SDS011;64371;47.566;19.086;2023-05-03T10:28:14;7.20;;;4.90;;
75758;SDS011;64371;47.566;19.086;2023-05-03T10:34:56;7.83;;;5.80;;
75758;SDS011;64371;47.566;19.086;2023-05-03T10:38:27;5.22;;;4.65;;
75758;SDS011;64371;47.566;19.086;2023-05-03T10:41:31;5.70;;;4.80;;
75758;SDS011;64371;47.566;19.086;2023-05-03T10:44:37;6.40;;;5.47;;
75758;SDS011;64371;47.566;19.086;2023-05-03T10:47:41;6.07;;;4.90;;
75758;SDS011;64371;47.566;19.086;2023-05-03T10:50:43;6.40;;;4.47;;
75758;SDS011;64371;47.566;19.086;2023-05-03T10:53:46;6.47;;;5.70;;
75758;SDS011;64371;47.566;19.086;2023-05-03T10:56:49;7.28;;;5.72;;
75758;SDS011;64371;47.566;19.086;2023-05-03T10:59:52;8.13;;;6.00;;
75758;SDS011;64371;47.566;19.086;2023-05-03T11:06:26;8.37;;;5.97;;
75758;SDS011;64371;47.566;19.086;2023-05-03T11:09:33;7.90;;;5.55;;
75758;SDS011;64371;47.566;19.086;2023-05-03T11:12:37;6.88;;;6.00;;
75758;SDS011;64371;47.566;19.086;2023-05-03T11:15:39;8.18;;;5.70;;
75758;SDS011;64371;47.566;19.086;2023-05-03T11:18:43;6.22;;;5.63;;
75758;SDS011;64371;47.566;19.086;2023-05-03T11:21:47;8.60;;;6.17;;
75758;SDS011;64371;47.566;19.086;2023-05-03T11:24:50;7.40;;;5.70;;
75758;SDS011;64371;47.566;19.086;2023-05-03T11:27:52;7.65;;;5.43;;
75758;SDS011;64371;47.566;19.086;2023-05-03T11:30:55;16.00;;;6.32;;
75758;SDS011;64371;47.566;19.086;2023-05-03T11:33:58;7.68;;;6.00;;
75758;SDS011;64371;47.566;19.086;2023-05-03T11:37:01;5.70;;;5.10;;
75758;SDS011;64371;47.566;19.086;2023-05-03T11:40:04;39.83;;;8.38;;
75758;SDS011;64371;47.566;19.086;2023-05-03T11:43:09;10.15;;;6.22;;
75758;SDS011;64371;47.566;19.086;2023-05-03T11:46:15;5.95;;;5.05;;
75758;SDS011;64371;47.566;19.086;2023-05-03T11:49:22;5.80;;;5.15;;
75758;SDS011;64371;47.566;19.086;2023-05-03T11:52:25;9.00;;;5.20;;
75758;SDS011;64371;47.566;19.086;2023-05-03T11:55:29;5.75;;;4.97;;
75758;SDS011;64371;47.566;19.086;2023-05-03T11:58:33;6.25;;;5.03;;
75758;SDS011;64371;47.566;19.086;2023-05-03T12:01:35;7.88;;;4.90;;
75758;SDS011;64371;47.566;19.086;2023-05-03T12:04:39;6.75;;;5.32;;
75758;SDS011;64371;47.566;19.086;2023-05-03T12:07:44;8.67;;;5.60;;
75758;SDS011;64371;47.566;19.086;2023-05-03T12:10:49;7.22;;;4.82;;
75758;SDS011;64371;47.566;19.086;2023-05-03T12:13:59;5.88;;;5.28;;
75758;SDS011;64371;47.566;19.086;2023-05-03T12:17:03;7.03;;;5.15;;
75758;SDS011;64371;47.566;19.086;2023-05-03T12:23:23;10.03;;;5.27;;
75758;SDS011;64371;47.566;19.086;2023-05-03T12:26:27;8.90;;;4.60;;
75758;SDS011;64371;47.566;19.086;2023-05-03T12:29:30;6.65;;;4.88;;
75758;SDS011;64371;47.566;19.086;2023-05-03T12:32:36;7.43;;;5.00;;
75758;SDS011;64371;47.566;19.086;2023-05-03T12:35:40;7.88;;;4.90;;
75758;SDS011;64371;47.566;19.086;2023-05-03T12:38:49;6.77;;;4.97;;
75758;SDS011;64371;47.566;19.086;2023-05-03T12:41:57;7.18;;;4.75;;
75758;SDS011;64371;47.566;19.086;2023-05-03T12:45:02;6.40;;;5.13;;
75758;SDS011;64371;47.566;19.086;2023-05-03T12:48:06;6.60;;;4.88;;
75758;SDS011;64371;47.566;19.086;2023-05-03T12:51:10;7.22;;;4.90;;
75758;SDS011;64371;47.566;19.086;2023-05-03T12:54:15;5.77;;;4.87;;
75758;SDS011;64371;47.566;19.086;2023-05-03T12:57:20;5.40;;;4.70;;
75758;SDS011;64371;47.566;19.086;2023-05-03T13:00:25;6.18;;;4.80;;
75758;SDS011;64371;47.566;19.086;2023-05-03T13:03:36;8.10;;;5.15;;
75758;SDS011;64371;47.566;19.086;2023-05-03T13:06:45;6.10;;;4.70;;
75758;SDS011;64371;47.566;19.086;2023-05-03T13:09:49;5.47;;;4.50;;
75758;SDS011;64371;47.566;19.086;2023-05-03T13:12:54;5.50;;;4.90;;
75758;SDS011;64371;47.566;19.086;2023-05-03T13:15:57;7.45;;;4.35;;
75758;SDS011;64371;47.566;19.086;2023-05-03T13:19:00;6.40;;;5.00;;
75758;SDS011;64371;47.566;19.086;2023-05-03T13:22:03;6.50;;;4.82;;
75758;SDS011;64371;47.566;19.086;2023-05-03T13:25:06;10.47;;;5.30;;
75758;SDS011;64371;47.566;19.086;2023-05-03T13:28:09;5.70;;;4.93;;
75758;SDS011;64371;47.566;19.086;2023-05-03T13:31:11;8.10;;;4.95;;
75758;SDS011;64371;47.566;19.086;2023-05-03T13:34:14;6.60;;;4.57;;
75758;SDS011;64371;47.566;19.086;2023-05-03T13:37:17;5.53;;;4.70;;
75758;SDS011;64371;47.566;19.086;2023-05-03T13:40:20;6.33;;;4.80;;
75758;SDS011;64371;47.566;19.086;2023-05-03T13:43:25;8.05;;;4.90;;
75758;SDS011;64371;47.566;19.086;2023-05-03T13:46:27;7.20;;;5.07;;
75758;SDS011;64371;47.566;19.086;2023-05-03T13:49:30;7.78;;;5.18;;
75758;SDS011;64371;47.566;19.086;2023-05-03T13:52:33;8.77;;;5.32;;
75758;SDS011;64371;47.566;19.086;2023-05-03T13:55:35;7.53;;;5.40;;
75758;SDS011;64371;47.566;19.086;2023-05-03T13:58:37;6.57;;;4.90;;
75758;SDS011;64371;47.566;19.086;2023-05-03T14:01:40;6.38;;;4.82;;
75758;SDS011;64371;47.566;19.086;2023-05-03T14:04:44;5.38;;;4.88;;
75758;SDS011;64371;47.566;19.086;2023-05-03T14:07:47;6.38;;;4.72;;
75758;SDS011;64371;47.566;19.086;2023-05-03T14:10:49;9.10;;;5.10;;
75758;SDS011;64371;47.566;19.086;2023-05-03T14:13:52;8.35;;;4.90;;
75758;SDS011;64371;47.566;19.086;2023-05-03T14:16:58;5.90;;;5.10;;
75758;SDS011;64371;47.566;19.086;2023-05-03T14:20:00;5.60;;;4.70;;
75758;SDS011;64371;47.566;19.086;2023-05-03T14:23:03;5.63;;;4.70;;
75758;SDS011;64371;47.566;19.086;2023-05-03T14:26:06;5.10;;;4.43;;
75758;SDS011;64371;47.566;19.086;2023-05-03T14:29:08;5.03;;;4.45;;
75758;SDS011;64371;47.566;19.086;2023-05-03T14:32:11;5.20;;;4.68;;
75758;SDS011;64371;47.566;19.086;2023-05-03T14:35:14;9.65;;;4.60;;
75758;SDS011;64371;47.566;19.086;2023-05-03T14:38:19;4.97;;;4.47;;
75758;SDS011;64371;47.566;19.086;2023-05-03T14:41:21;6.63;;;4.50;;
75758;SDS011;64371;47.566;19.086;2023-05-03T14:44:24;6.25;;;4.50;;
75758;SDS011;64371;47.566;19.086;2023-05-03T14:47:27;10.95;;;5.10;;
75758;SDS011;64371;47.566;19.086;2023-05-03T14:50:29;5.50;;;4.90;;
75758;SDS011;64371;47.566;19.086;2023-05-03T14:53:32;8.02;;;4.97;;
75758;SDS011;64371;47.566;19.086;2023-05-03T14:56:34;6.67;;;4.73;;
75758;SDS011;64371;47.566;19.086;2023-05-03T14:59:37;6.75;;;4.75;;
75758;SDS011;64371;47.566;19.086;2023-05-03T15:02:39;5.57;;;5.00;;
75758;SDS011;64371;47.566;19.086;2023-05-03T15:05:46;5.45;;;4.78;;
75758;SDS011;64371;47.566;19.086;2023-05-03T15:08:50;5.65;;;4.93;;
75758;SDS011;64371;47.566;19.086;2023-05-03T15:11:53;6.07;;;4.90;;
75758;SDS011;64371;47.566;19.086;2023-05-03T15:14:55;7.50;;;4.68;;
75758;SDS011;64371;47.566;19.086;2023-05-03T15:17:58;5.22;;;4.32;;
75758;SDS011;64371;47.566;19.086;2023-05-03T15:21:00;4.50;;;4.00;;
75758;SDS011;64371;47.566;19.086;2023-05-03T15:24:04;8.05;;;4.43;;
75758;SDS011;64371;47.566;19.086;2023-05-03T15:27:06;6.20;;;4.50;;
75758;SDS011;64371;47.566;19.086;2023-05-03T15:30:09;6.35;;;4.60;;
75758;SDS011;64371;47.566;19.086;2023-05-03T15:33:13;5.47;;;4.45;;
75758;SDS011;64371;47.566;19.086;2023-05-03T15:36:15;6.18;;;4.97;;
75758;SDS011;64371;47.566;19.086;2023-05-03T15:39:18;5.85;;;4.63;;
75758;SDS011;64371;47.566;19.086;2023-05-03T15:42:20;6.17;;;4.63;;
75758;SDS011;64371;47.566;19.086;2023-05-03T15:45:23;6.78;;;5.18;;
75758;SDS011;64371;47.566;19.086;2023-05-03T15:48:27;5.05;;;4.32;;
75758;SDS011;64371;47.566;19.086;2023-05-03T15:51:29;5.57;;;4.90;;
75758;SDS011;64371;47.566;19.086;2023-05-03T15:54:33;6.07;;;4.97;;
75758;SDS011;64371;47.566;19.086;2023-05-03T15:57:35;6.40;;;5.00;;
75758;SDS011;64371;47.566;19.086;2023-05-03T16:00:38;7.75;;;5.20;;
75758;SDS011;64371;47.566;19.086;2023-05-03T16:03:40;7.57;;;4.95;;
75758;SDS011;64371;47.566;19.086;2023-05-03T16:06:42;6.22;;;4.90;;
75758;SDS011;64371;47.566;19.086;2023-05-03T16:09:45;6.78;;;5.05;;
75758;SDS011;64371;47.566;19.086;2023-05-03T16:12:47;5.87;;;4.90;;
